createdAt,value
2018-09-08T00:00:09.384Z,18.00
2018-09-08T00:01:09.559Z,18.50
2018-09-08T00:02:09.762Z,18.80
2018-09-08T00:03:09.948Z,17.50
2018-09-08T00:04:10.132Z,17.50
2018-09-08T00:05:10.324Z,17.70
2018-09-08T00:06:10.501Z,18.60
2018-09-08T00:07:10.700Z,19.30
2018-09-08T00:08:10.877Z,19.00
2018-09-08T00:09:11.061Z,18.70
2018-09-08T00:10:11.243Z,19.70
2018-09-08T00:11:11.422Z,19.50
2018-09-08T00:12:11.613Z,19.00
2018-09-08T00:13:11.803Z,19.60
2018-09-08T00:14:11.980Z,18.80
2018-09-08T00:15:12.165Z,17.70
2018-09-08T00:16:12.365Z,19.40
2018-09-08T00:17:12.562Z,19.60
2018-09-08T00:18:13.649Z,20.10
2018-09-08T00:19:12.953Z,19.00
2018-09-08T00:20:13.173Z,19.70
2018-09-08T00:21:13.353Z,19.50
2018-09-08T00:22:13.548Z,18.40
2018-09-08T00:23:13.733Z,19.60
2018-09-08T00:24:13.933Z,18.30
2018-09-08T00:25:14.110Z,17.80
2018-09-08T00:26:14.314Z,17.80
2018-09-08T00:27:14.494Z,18.10
2018-09-08T00:28:14.694Z,18.40
2018-09-08T00:29:14.892Z,18.00
2018-09-08T00:30:15.073Z,18.20
2018-09-08T00:31:15.301Z,18.50
2018-09-08T00:32:15.497Z,19.20
2018-09-08T00:33:15.706Z,18.70
2018-09-08T00:34:15.899Z,18.50
2018-09-08T00:35:16.077Z,17.20
2018-09-08T00:36:16.270Z,17.70
2018-09-08T00:37:16.452Z,17.30
2018-09-08T00:38:16.642Z,17.50
2018-09-08T00:39:16.834Z,17.50
2018-09-08T00:40:17.046Z,18.50
2018-09-08T00:41:17.210Z,18.80
2018-09-08T00:42:17.395Z,18.80
2018-09-08T00:43:17.582Z,18.80
2018-09-08T00:44:17.771Z,19.00
2018-09-08T00:45:17.953Z,19.30
2018-09-08T00:46:18.148Z,18.70
2018-09-08T00:47:18.331Z,18.80
2018-09-08T00:48:18.516Z,18.50
2018-09-08T00:49:18.701Z,19.00
2018-09-08T00:50:18.894Z,18.70
2018-09-08T00:51:19.077Z,17.80
2018-09-08T00:52:19.274Z,19.00
2018-09-08T00:53:19.461Z,18.10
2018-09-08T00:54:19.650Z,19.10
2018-09-08T00:55:19.840Z,19.80
2018-09-08T00:56:20.025Z,20.20
2018-09-08T00:57:20.217Z,18.70
2018-09-08T00:58:20.409Z,18.80
2018-09-08T00:59:20.592Z,18.90
2018-09-08T01:00:20.782Z,19.80
2018-09-08T01:01:20.970Z,19.80
2018-09-08T01:02:21.154Z,20.50
2018-09-08T01:03:21.339Z,21.20
2018-09-08T01:04:21.527Z,20.30
2018-09-08T01:05:21.713Z,20.50
2018-09-08T01:06:21.897Z,20.00
2018-09-08T01:07:22.084Z,20.60
2018-09-08T01:08:22.277Z,19.70
2018-09-08T01:09:22.459Z,19.90
2018-09-08T01:10:22.648Z,19.60
2018-09-08T01:11:22.832Z,21.40
2018-09-08T01:12:23.032Z,20.20
2018-09-08T01:13:23.213Z,18.90
2018-09-08T01:14:23.403Z,19.20
2018-09-08T01:15:23.598Z,19.20
2018-09-08T01:16:23.785Z,19.70
2018-09-08T01:17:23.972Z,20.70
2018-09-08T01:18:24.163Z,18.80
2018-09-08T01:19:24.346Z,19.30
2018-09-08T01:20:24.533Z,19.40
2018-09-08T01:21:24.721Z,18.80
2018-09-08T01:22:24.912Z,20.40
2018-09-08T01:23:25.103Z,19.70
2018-09-08T01:24:25.288Z,19.90
2018-09-08T01:25:25.484Z,19.10
2018-09-08T01:26:25.669Z,19.90
2018-09-08T01:27:25.861Z,19.20
2018-09-08T01:28:26.047Z,18.60
2018-09-08T01:29:26.239Z,18.60
2018-09-08T01:30:26.424Z,19.40
2018-09-08T01:31:26.613Z,18.30
2018-09-08T01:32:26.799Z,18.70
2018-09-08T01:33:26.988Z,18.20
2018-09-08T01:34:27.174Z,18.10
2018-09-08T01:35:27.367Z,20.10
2018-09-08T01:36:27.562Z,18.90
2018-09-08T01:37:27.752Z,21.60
2018-09-08T01:38:27.939Z,21.10
2018-09-08T01:39:28.121Z,19.50
2018-09-08T01:40:28.310Z,19.60
2018-09-08T01:41:28.496Z,22.30
2018-09-08T01:42:28.680Z,22.50
2018-09-08T01:43:28.869Z,23.10
2018-09-08T01:44:29.055Z,21.10
2018-09-08T01:45:29.234Z,22.70
2018-09-08T01:46:29.416Z,20.30
2018-09-08T01:47:29.602Z,21.50
2018-09-08T01:48:29.792Z,22.40
2018-09-08T01:49:29.976Z,22.00
2018-09-08T01:50:30.162Z,20.80
2018-09-08T01:51:30.351Z,21.20
2018-09-08T01:52:30.545Z,21.30
2018-09-08T01:53:30.729Z,18.70
2018-09-08T01:54:30.929Z,20.40
2018-09-08T01:55:31.111Z,19.80
2018-09-08T01:56:31.297Z,21.70
2018-09-08T01:57:31.482Z,20.60
2018-09-08T01:58:31.670Z,21.60
2018-09-08T01:59:31.859Z,20.10
2018-09-08T02:00:32.042Z,20.10
2018-09-08T02:01:32.229Z,21.10
2018-09-08T02:02:32.414Z,20.80
2018-09-08T02:03:32.596Z,20.30
2018-09-08T02:04:32.795Z,20.70
2018-09-08T02:05:32.984Z,23.00
2018-09-08T02:06:33.165Z,19.90
2018-09-08T02:07:33.355Z,20.80
2018-09-08T02:08:33.542Z,19.70
2018-09-08T02:09:33.728Z,22.00
2018-09-08T02:10:33.919Z,21.20
2018-09-08T02:11:34.101Z,22.00
2018-09-08T02:12:34.284Z,23.10
2018-09-08T02:13:34.469Z,23.10
2018-09-08T02:14:34.657Z,21.60
2018-09-08T02:15:34.842Z,21.80
2018-09-08T02:16:35.030Z,23.40
2018-09-08T02:17:35.215Z,22.10
2018-09-08T02:18:35.403Z,20.50
2018-09-08T02:19:35.585Z,20.40
2018-09-08T02:20:35.774Z,18.00
2018-09-08T02:21:35.965Z,18.70
2018-09-08T02:22:36.148Z,18.90
2018-09-08T02:23:36.336Z,18.10
2018-09-08T02:24:36.520Z,17.90
2018-09-08T02:25:36.710Z,18.20
2018-09-08T02:26:36.892Z,18.40
2018-09-08T02:27:37.076Z,19.90
2018-09-08T02:28:37.272Z,18.50
2018-09-08T02:29:37.457Z,18.00
2018-09-08T02:30:37.637Z,18.60
2018-09-08T02:31:37.828Z,19.00
2018-09-08T02:32:38.008Z,18.10
2018-09-08T02:33:38.201Z,20.00
2018-09-08T02:34:38.383Z,18.00
2018-09-08T02:35:38.569Z,21.00
2018-09-08T02:36:38.800Z,20.10
2018-09-08T02:37:38.944Z,20.30
2018-09-08T02:38:39.127Z,18.60
2018-09-08T02:39:39.315Z,17.80
2018-09-08T02:40:39.498Z,17.70
2018-09-08T02:41:39.684Z,16.00
2018-09-08T02:42:39.867Z,17.50
2018-09-08T02:43:40.054Z,18.90
2018-09-08T02:44:40.240Z,18.20
2018-09-08T02:45:40.425Z,16.50
2018-09-08T02:46:40.605Z,17.10
2018-09-08T02:47:40.800Z,16.20
2018-09-08T02:48:40.982Z,16.00
2018-09-08T02:49:41.174Z,15.40
2018-09-08T02:50:41.358Z,16.10
2018-09-08T02:51:41.540Z,16.40
2018-09-08T02:52:41.722Z,16.90
2018-09-08T02:53:41.920Z,16.70
2018-09-08T02:54:42.105Z,16.60
2018-09-08T02:55:42.287Z,15.00
2018-09-08T02:56:42.475Z,14.30
2018-09-08T02:57:42.663Z,15.30
2018-09-08T02:58:42.862Z,13.70
2018-09-08T02:59:43.038Z,13.30
2018-09-08T03:00:43.225Z,15.30
2018-09-08T03:01:43.414Z,14.80
2018-09-08T03:02:43.598Z,14.40
2018-09-08T03:03:43.787Z,15.80
2018-09-08T03:04:43.978Z,16.10
2018-09-08T03:05:44.171Z,16.30
2018-09-08T03:06:44.355Z,14.90
2018-09-08T03:07:44.540Z,15.60
2018-09-08T03:08:44.724Z,15.60
2018-09-08T03:09:44.905Z,15.80
2018-09-08T03:10:45.092Z,15.30
2018-09-08T03:11:45.282Z,16.60
2018-09-08T03:12:45.462Z,16.60
2018-09-08T03:13:45.654Z,15.80
2018-09-08T03:14:45.839Z,16.80
2018-09-08T03:15:46.024Z,14.40
2018-09-08T03:16:46.210Z,14.50
2018-09-08T03:17:46.394Z,14.20
2018-09-08T03:18:46.583Z,15.10
2018-09-08T03:19:46.771Z,14.90
2018-09-08T03:20:46.957Z,13.80
2018-09-08T03:21:47.141Z,14.00
2018-09-08T03:22:47.326Z,12.80
2018-09-08T03:23:47.510Z,13.30
2018-09-08T03:24:47.700Z,13.60
2018-09-08T03:25:47.888Z,13.50
2018-09-08T03:26:48.076Z,13.70
2018-09-08T03:27:48.264Z,17.40
2018-09-08T03:28:48.445Z,23.10
2018-09-08T03:29:48.635Z,14.70
2018-09-08T03:30:48.819Z,14.50
2018-09-08T03:31:49.002Z,15.20
2018-09-08T03:32:49.194Z,15.60
2018-09-08T03:33:49.381Z,16.10
2018-09-08T03:34:49.568Z,16.00
2018-09-08T03:35:49.760Z,17.40
2018-09-08T03:36:49.940Z,16.70
2018-09-08T03:37:50.128Z,17.70
2018-09-08T03:38:50.309Z,16.80
2018-09-08T03:39:50.499Z,17.20
2018-09-08T03:40:50.681Z,17.90
2018-09-08T03:41:50.868Z,16.70
2018-09-08T03:42:51.056Z,17.50
2018-09-08T03:43:51.241Z,18.60
2018-09-08T03:44:51.423Z,19.10
2018-09-08T03:45:51.613Z,17.90
2018-09-08T03:46:51.795Z,19.50
2018-09-08T03:47:51.982Z,20.60
2018-09-08T03:48:52.164Z,18.30
2018-09-08T03:49:52.355Z,18.30
2018-09-08T03:50:52.540Z,20.20
2018-09-08T03:51:52.728Z,20.60
2018-09-08T03:52:52.924Z,20.20
2018-09-08T03:53:53.110Z,20.40
2018-09-08T03:54:53.293Z,22.40
2018-09-08T03:55:53.485Z,20.00
2018-09-08T03:56:53.669Z,19.90
2018-09-08T03:57:53.857Z,19.70
2018-09-08T03:58:54.111Z,20.00
2018-09-08T03:59:54.233Z,19.10
2018-09-08T04:00:54.418Z,18.90
2018-09-08T04:01:54.604Z,20.40
2018-09-08T04:02:54.800Z,18.70
2018-09-08T04:03:54.988Z,19.90
2018-09-08T04:04:55.179Z,20.50
2018-09-08T04:05:55.356Z,18.50
2018-09-08T04:06:55.564Z,20.00
2018-09-08T04:07:55.738Z,20.30
2018-09-08T04:08:55.932Z,18.90
2018-09-08T04:09:56.135Z,21.90
2018-09-08T04:10:56.323Z,19.90
2018-09-08T04:11:56.510Z,19.20
2018-09-08T04:12:56.694Z,19.60
2018-09-08T04:13:56.882Z,20.10
2018-09-08T04:14:57.071Z,20.60
2018-09-08T04:15:57.253Z,17.70
2018-09-08T04:16:57.443Z,17.40
2018-09-08T04:17:57.652Z,17.00
2018-09-08T04:18:57.816Z,18.40
2018-09-08T04:19:57.998Z,17.60
2018-09-08T04:20:58.184Z,16.60
2018-09-08T04:21:58.371Z,17.40
2018-09-08T04:22:58.554Z,16.50
2018-09-08T04:23:58.752Z,16.80
2018-09-08T04:24:58.928Z,17.30
2018-09-08T04:25:59.117Z,17.20
2018-09-08T04:26:59.303Z,17.60
2018-09-08T04:27:59.490Z,17.40
2018-09-08T04:28:59.669Z,18.20
2018-09-08T04:29:59.857Z,17.20
2018-09-08T04:31:00.047Z,18.40
2018-09-08T04:32:00.232Z,17.20
2018-09-08T04:33:00.416Z,16.40
2018-09-08T04:34:00.603Z,17.20
2018-09-08T04:35:00.788Z,17.60
2018-09-08T04:36:00.970Z,19.00
2018-09-08T04:37:01.156Z,18.50
2018-09-08T04:38:01.345Z,18.00
2018-09-08T04:39:01.532Z,17.90
2018-09-08T04:40:01.711Z,18.80
2018-09-08T04:41:01.948Z,17.90
2018-09-08T04:42:02.088Z,19.20
2018-09-08T04:43:02.277Z,19.70
2018-09-08T04:44:02.464Z,18.10
2018-09-08T04:45:02.650Z,18.10
2018-09-08T04:46:02.837Z,19.10
2018-09-08T04:47:03.019Z,18.80
2018-09-08T04:48:03.211Z,19.60
2018-09-08T04:49:03.451Z,18.80
2018-09-08T04:50:03.588Z,23.20
2018-09-08T04:51:03.768Z,18.40
2018-09-08T04:52:03.951Z,20.90
2018-09-08T04:53:04.142Z,19.90
2018-09-08T04:54:04.325Z,17.70
2018-09-08T04:55:04.511Z,19.30
2018-09-08T04:56:04.695Z,19.00
2018-09-08T04:57:04.881Z,17.20
2018-09-08T04:58:05.068Z,18.50
2018-09-08T04:59:05.259Z,17.10
2018-09-08T05:00:05.439Z,19.20
2018-09-08T05:01:05.622Z,19.80
2018-09-08T05:02:05.817Z,19.10
2018-09-08T05:03:05.995Z,19.40
2018-09-08T05:04:06.183Z,20.50
2018-09-08T05:05:06.365Z,18.70
2018-09-08T05:06:06.552Z,21.60
2018-09-08T05:07:06.738Z,20.60
2018-09-08T05:08:06.929Z,20.10
2018-09-08T05:09:07.138Z,19.80
2018-09-08T05:10:07.296Z,20.10
2018-09-08T05:11:07.487Z,17.90
2018-09-08T05:12:07.675Z,18.30
2018-09-08T05:13:07.859Z,19.60
2018-09-08T05:14:08.045Z,18.90
2018-09-08T05:15:08.234Z,17.40
2018-09-08T05:16:08.423Z,19.00
2018-09-08T05:17:08.610Z,17.50
2018-09-08T05:18:08.790Z,17.70
2018-09-08T05:19:08.977Z,17.80
2018-09-08T05:20:09.159Z,17.30
2018-09-08T05:21:09.346Z,18.40
2018-09-08T05:22:09.530Z,15.40
2018-09-08T05:23:09.732Z,15.80
2018-09-08T05:24:09.908Z,14.90
2018-09-08T05:25:10.087Z,17.00
2018-09-08T05:26:10.274Z,15.60
2018-09-08T05:27:10.458Z,16.50
2018-09-08T05:28:10.645Z,16.20
2018-09-08T05:29:10.843Z,18.00
2018-09-08T05:30:11.016Z,17.10
2018-09-08T05:31:11.204Z,16.90
2018-09-08T05:32:11.390Z,17.50
2018-09-08T05:33:11.578Z,17.00
2018-09-08T05:34:11.764Z,17.40
2018-09-08T05:35:11.947Z,15.60
2018-09-08T05:36:12.129Z,17.90
2018-09-08T05:37:12.317Z,16.80
2018-09-08T05:38:12.503Z,19.00
2018-09-08T05:39:12.703Z,16.90
2018-09-08T05:40:12.885Z,16.70
2018-09-08T05:41:13.067Z,19.10
2018-09-08T05:42:13.256Z,19.80
2018-09-08T05:43:13.445Z,18.70
2018-09-08T05:44:13.629Z,16.90
2018-09-08T05:45:13.815Z,17.50
2018-09-08T05:46:13.999Z,16.40
2018-09-08T05:47:14.181Z,15.70
2018-09-08T05:48:14.372Z,16.50
2018-09-08T05:49:14.557Z,17.30
2018-09-08T05:50:14.744Z,16.20
2018-09-08T05:51:14.936Z,16.70
2018-09-08T05:52:15.121Z,15.60
2018-09-08T05:53:15.309Z,16.40
2018-09-08T05:54:15.492Z,17.50
2018-09-08T05:55:15.681Z,15.80
2018-09-08T05:56:15.866Z,15.10
2018-09-08T05:57:16.056Z,15.50
2018-09-08T05:58:16.250Z,15.40
2018-09-08T05:59:16.419Z,14.70
2018-09-08T06:00:16.616Z,14.60
2018-09-08T06:01:16.807Z,18.00
2018-09-08T06:02:17.006Z,16.50
2018-09-08T06:03:17.193Z,16.10
2018-09-08T06:04:17.378Z,21.70
2018-09-08T06:05:17.568Z,19.20
2018-09-08T06:06:17.767Z,15.70
2018-09-08T06:07:17.948Z,18.90
2018-09-08T06:08:18.136Z,19.20
2018-09-08T06:09:18.322Z,18.70
2018-09-08T06:10:18.544Z,20.20
2018-09-08T06:11:18.697Z,14.90
2018-09-08T06:12:18.891Z,18.10
2018-09-08T06:13:19.082Z,22.20
2018-09-08T06:14:19.268Z,21.70
2018-09-08T06:15:19.452Z,21.10
2018-09-08T06:16:19.636Z,20.80
2018-09-08T06:17:19.842Z,23.20
2018-09-08T06:18:20.050Z,22.50
2018-09-08T06:19:20.200Z,22.60
2018-09-08T06:20:20.385Z,25.10
2018-09-08T06:21:20.570Z,18.90
2018-09-08T06:22:20.760Z,17.20
2018-09-08T06:23:20.949Z,19.00
2018-09-08T06:24:21.164Z,18.60
2018-09-08T06:25:21.433Z,19.80
2018-09-08T06:26:21.508Z,21.60
2018-09-08T06:27:21.690Z,22.50
2018-09-08T06:28:21.923Z,21.70
2018-09-08T06:29:22.070Z,21.30
2018-09-08T06:30:22.256Z,21.80
2018-09-08T06:31:22.441Z,30.70
2018-09-08T06:32:22.624Z,27.40
2018-09-08T06:33:22.828Z,29.90
2018-09-08T06:34:23.012Z,20.90
2018-09-08T06:35:23.294Z,18.00
2018-09-08T06:36:23.379Z,16.80
2018-09-08T06:37:23.567Z,15.60
2018-09-08T06:38:23.756Z,16.40
2018-09-08T06:39:23.941Z,15.60
2018-09-08T06:40:24.129Z,13.70
2018-09-08T06:41:24.318Z,11.90
2018-09-08T06:42:24.512Z,11.90
2018-09-08T06:43:24.704Z,9.50
2018-09-08T06:44:24.884Z,10.00
2018-09-08T06:45:25.076Z,8.20
2018-09-08T06:46:25.276Z,7.60
2018-09-08T06:47:25.461Z,7.90
2018-09-08T06:48:25.654Z,6.70
2018-09-08T06:49:25.841Z,7.00
2018-09-08T06:50:26.037Z,6.80
2018-09-08T06:51:26.220Z,7.30
2018-09-08T06:52:26.411Z,6.80
2018-09-08T06:53:26.607Z,6.40
2018-09-08T06:54:26.796Z,5.90
2018-09-08T06:55:26.985Z,6.40
2018-09-08T06:56:27.180Z,5.90
2018-09-08T06:57:27.366Z,5.60
2018-09-08T06:58:27.560Z,5.90
2018-09-08T06:59:27.748Z,5.60
2018-09-08T07:00:27.946Z,5.80
2018-09-08T07:01:28.152Z,5.40
2018-09-08T07:02:28.341Z,5.30
2018-09-08T07:03:28.589Z,6.10
2018-09-08T07:04:28.734Z,5.80
2018-09-08T07:05:28.954Z,5.20
2018-09-08T07:06:29.142Z,5.60
2018-09-08T07:07:29.353Z,5.50
2018-09-08T07:08:29.541Z,5.80
2018-09-08T07:09:29.742Z,5.20
2018-09-08T07:10:29.918Z,4.90
2018-09-08T07:11:30.114Z,5.40
2018-09-08T07:12:30.311Z,5.00
2018-09-08T07:13:30.506Z,5.00
2018-09-08T07:14:30.701Z,4.80
2018-09-08T07:15:30.905Z,4.90
2018-09-08T07:16:31.103Z,4.40
2018-09-08T07:17:31.298Z,4.30
2018-09-08T07:18:31.498Z,5.10
2018-09-08T07:19:31.688Z,5.80
2018-09-08T07:20:31.883Z,7.70
2018-09-08T07:21:32.085Z,4.30
2018-09-08T07:22:32.281Z,4.60
2018-09-08T07:23:32.486Z,4.50
2018-09-08T07:24:32.676Z,3.80
2018-09-08T07:25:32.878Z,4.70
2018-09-08T07:26:33.072Z,4.30
2018-09-08T07:27:33.268Z,4.10
2018-09-08T07:28:33.468Z,3.80
2018-09-08T07:29:33.704Z,4.00
2018-09-08T07:30:33.914Z,4.30
2018-09-08T07:31:33.990Z,3.80
2018-09-08T07:32:34.185Z,3.70
2018-09-08T07:33:34.397Z,3.80
2018-09-08T07:34:34.591Z,3.80
2018-09-08T07:35:34.787Z,3.80
2018-09-08T07:36:34.984Z,3.80
2018-09-08T07:37:35.182Z,3.40
2018-09-08T07:38:35.384Z,3.70
2018-09-08T07:39:35.580Z,3.50
2018-09-08T07:40:35.778Z,3.40
2018-09-08T07:41:35.978Z,3.40
2018-09-08T07:42:36.176Z,3.40
2018-09-08T07:43:36.369Z,3.40
2018-09-08T07:44:36.570Z,3.60
2018-09-08T07:45:36.766Z,3.40
2018-09-08T07:46:36.963Z,3.90
2018-09-08T07:47:37.160Z,3.40
2018-09-08T07:48:37.369Z,3.40
2018-09-08T07:49:37.568Z,3.30
2018-09-08T07:50:37.769Z,3.80
2018-09-08T07:51:37.980Z,3.20
2018-09-08T07:52:38.175Z,3.40
2018-09-08T07:53:38.487Z,3.60
2018-09-08T07:54:38.580Z,3.50
2018-09-08T07:55:38.775Z,3.50
2018-09-08T07:56:38.996Z,3.50
2018-09-08T07:57:39.203Z,3.50
2018-09-08T07:58:39.400Z,3.20
2018-09-08T07:59:39.609Z,3.50
2018-09-08T08:00:39.808Z,3.20
2018-09-08T08:01:40.017Z,3.40
2018-09-08T08:02:40.218Z,3.20
2018-09-08T08:03:40.420Z,3.30
2018-09-08T08:04:40.617Z,3.30
2018-09-08T08:05:40.828Z,3.50
2018-09-08T08:06:41.081Z,3.50
2018-09-08T08:07:41.218Z,3.50
2018-09-08T08:08:41.420Z,3.00
2018-09-08T08:09:41.621Z,3.30
2018-09-08T08:10:41.822Z,3.10
2018-09-08T08:11:42.017Z,2.80
2018-09-08T08:12:42.219Z,3.10
2018-09-08T08:13:42.420Z,3.10
2018-09-08T08:14:42.633Z,2.90
2018-09-08T08:15:42.831Z,2.60
2018-09-08T08:16:43.035Z,2.70
2018-09-08T08:17:43.239Z,2.60
2018-09-08T08:18:43.447Z,2.70
2018-09-08T08:19:43.668Z,3.10
2018-09-08T08:20:43.866Z,3.40
2018-09-08T08:21:44.062Z,2.80
2018-09-08T08:22:44.263Z,2.90
2018-09-08T08:23:44.456Z,2.90
2018-09-08T08:24:44.665Z,2.50
2018-09-08T08:25:44.865Z,2.60
2018-09-08T08:26:45.071Z,2.60
2018-09-08T08:27:45.269Z,2.70
2018-09-08T08:28:45.477Z,2.70
2018-09-08T08:29:45.684Z,2.40
2018-09-08T08:30:45.885Z,2.40
2018-09-08T08:31:46.083Z,2.40
2018-09-08T08:32:46.275Z,2.70
2018-09-08T08:33:46.480Z,2.50
2018-09-08T08:34:46.705Z,2.50
2018-09-08T08:35:46.908Z,2.50
2018-09-08T08:36:47.107Z,2.50
2018-09-08T08:37:47.313Z,2.40
2018-09-08T08:38:47.519Z,2.30
2018-09-08T08:39:47.717Z,2.50
2018-09-08T08:40:47.921Z,2.50
2018-09-08T08:41:48.125Z,2.50
2018-09-08T08:42:48.324Z,2.30
2018-09-08T08:43:48.524Z,2.50
2018-09-08T08:44:48.726Z,2.20
2018-09-08T08:45:48.928Z,2.30
2018-09-08T08:46:49.131Z,2.40
2018-09-08T08:47:49.329Z,2.30
2018-09-08T08:48:49.536Z,2.20
2018-09-08T08:49:49.790Z,2.20
2018-09-08T08:50:49.953Z,2.40
2018-09-08T08:51:50.157Z,2.30
2018-09-08T08:52:50.372Z,2.30
2018-09-08T08:53:50.559Z,2.10
2018-09-08T08:54:50.760Z,2.20
2018-09-08T08:55:51.011Z,2.30
2018-09-08T08:56:51.172Z,2.40
2018-09-08T08:57:51.374Z,2.10
2018-09-08T08:58:51.578Z,2.20
2018-09-08T08:59:51.780Z,2.30
2018-09-08T09:00:51.991Z,2.20
2018-09-08T09:01:52.185Z,2.20
2018-09-08T09:02:52.408Z,1.80
2018-09-08T09:03:52.602Z,2.10
2018-09-08T09:04:52.821Z,2.00
2018-09-08T09:05:53.030Z,2.10
2018-09-08T09:06:53.419Z,1.90
2018-09-08T09:07:53.647Z,2.10
2018-09-08T09:08:53.623Z,1.90
2018-09-08T09:09:53.822Z,2.00
2018-09-08T09:10:54.028Z,1.80
2018-09-08T09:11:54.636Z,1.90
2018-09-08T09:12:54.496Z,1.80
2018-09-08T09:13:54.622Z,1.70
2018-09-08T09:14:54.832Z,1.80
2018-09-08T09:15:55.021Z,1.90
2018-09-08T09:16:55.315Z,1.70
2018-09-08T09:17:55.371Z,1.50
2018-09-08T09:18:55.999Z,1.70
2018-09-08T09:19:55.779Z,1.90
2018-09-08T09:20:55.981Z,2.10
2018-09-08T09:21:56.185Z,1.90
2018-09-08T09:22:56.378Z,2.10
2018-09-08T09:23:56.643Z,1.80
2018-09-08T09:24:56.833Z,2.00
2018-09-08T09:25:56.996Z,1.90
2018-09-08T09:26:57.200Z,2.00
2018-09-08T09:27:57.397Z,2.10
2018-09-08T09:28:57.596Z,2.10
2018-09-08T09:29:57.816Z,2.20
2018-09-08T09:30:58.013Z,1.80
2018-09-08T09:31:58.221Z,1.80
2018-09-08T09:32:58.435Z,1.80
2018-09-08T09:33:58.643Z,1.70
2018-09-08T09:34:58.848Z,1.90
2018-09-08T09:35:59.071Z,2.20
2018-09-08T09:36:59.282Z,1.70
2018-09-08T09:37:59.482Z,1.80
2018-09-08T09:38:59.692Z,1.90
2018-09-08T09:39:59.884Z,1.50
2018-09-08T09:41:00.097Z,1.90
2018-09-08T09:42:00.312Z,1.70
2018-09-08T09:43:00.520Z,1.60
2018-09-08T09:44:00.722Z,1.70
2018-09-08T09:45:00.926Z,1.60
2018-09-08T09:46:01.131Z,1.50
2018-09-08T09:47:01.336Z,1.70
2018-09-08T09:48:01.552Z,1.60
2018-09-08T09:49:01.735Z,1.80
2018-09-08T09:50:01.939Z,1.80
2018-09-08T09:51:02.152Z,1.60
2018-09-08T09:52:02.352Z,1.70
2018-09-08T09:53:02.590Z,1.70
2018-09-08T09:54:02.771Z,1.60
2018-09-08T09:55:02.996Z,1.60
2018-09-08T09:56:03.194Z,1.90
2018-09-08T09:57:03.394Z,1.50
2018-09-08T09:58:03.599Z,1.90
2018-09-08T09:59:03.815Z,1.80
2018-09-08T10:00:04.008Z,1.70
2018-09-08T10:01:04.226Z,1.40
2018-09-08T10:02:04.418Z,1.60
2018-09-08T10:03:04.619Z,1.60
2018-09-08T10:04:04.821Z,1.60
2018-09-08T10:05:05.025Z,1.60
2018-09-08T10:06:05.229Z,1.40
2018-09-08T10:07:05.426Z,1.70
2018-09-08T10:08:05.638Z,1.60
2018-09-08T10:09:05.843Z,1.70
2018-09-08T10:10:06.046Z,1.50
2018-09-08T10:11:06.246Z,1.40
2018-09-08T10:12:06.485Z,1.70
2018-09-08T10:13:06.664Z,1.80
2018-09-08T10:14:06.867Z,1.70
2018-09-08T10:15:07.060Z,1.50
2018-09-08T10:16:07.281Z,1.60
2018-09-08T10:17:07.481Z,1.40
2018-09-08T10:18:07.680Z,1.60
2018-09-08T10:19:07.899Z,1.80
2018-09-08T10:20:08.099Z,2.10
2018-09-08T10:21:08.300Z,1.90
2018-09-08T10:22:08.498Z,1.90
2018-09-08T10:23:08.790Z,1.70
2018-09-08T10:24:08.915Z,1.70
2018-09-08T10:25:09.116Z,1.90
2018-09-08T10:26:09.341Z,2.00
2018-09-08T10:27:09.525Z,1.80
2018-09-08T10:28:09.727Z,1.80
2018-09-08T10:29:09.928Z,1.80
2018-09-08T10:30:10.125Z,1.90
2018-09-08T10:31:10.332Z,1.70
2018-09-08T10:32:10.836Z,1.80
2018-09-08T10:33:10.731Z,1.80
2018-09-08T10:34:10.929Z,1.80
2018-09-08T10:35:11.142Z,1.70
2018-09-08T10:36:11.346Z,1.60
2018-09-08T10:37:11.549Z,1.40
2018-09-08T10:38:11.752Z,1.60
2018-09-08T10:39:11.957Z,1.60
2018-09-08T10:40:12.170Z,1.60
2018-09-08T10:41:12.369Z,1.60
2018-09-08T10:42:12.565Z,1.80
2018-09-08T10:43:12.781Z,1.80
2018-09-08T10:44:12.982Z,1.70
2018-09-08T10:45:13.189Z,1.60
2018-09-08T10:46:13.385Z,1.70
2018-09-08T10:47:13.585Z,1.60
2018-09-08T10:48:13.796Z,1.60
2018-09-08T10:49:14.015Z,1.80
2018-09-08T10:50:14.219Z,1.70
2018-09-08T10:51:14.419Z,1.50
2018-09-08T10:52:14.620Z,1.50
2018-09-08T10:53:14.822Z,1.80
2018-09-08T10:54:15.024Z,1.50
2018-09-08T10:55:15.213Z,1.80
2018-09-08T10:56:15.420Z,1.40
2018-09-08T10:57:15.621Z,1.60
2018-09-08T10:58:15.822Z,1.80
2018-09-08T10:59:16.020Z,1.70
2018-09-08T11:00:16.255Z,1.90
2018-09-08T11:01:16.443Z,1.80
2018-09-08T11:02:16.928Z,1.90
2018-09-08T11:03:16.840Z,1.90
2018-09-08T11:04:17.035Z,2.00
2018-09-08T11:05:17.239Z,1.50
2018-09-08T11:06:17.450Z,1.70
2018-09-08T11:07:17.635Z,1.60
2018-09-08T11:08:17.839Z,1.70
2018-09-08T11:09:18.038Z,1.70
2018-09-08T11:10:18.237Z,1.70
2018-09-08T11:11:18.435Z,1.50
2018-09-08T11:12:18.636Z,1.60
2018-09-08T11:13:18.840Z,1.50
2018-09-08T11:14:19.040Z,1.40
2018-09-08T11:15:19.242Z,1.60
2018-09-08T11:16:19.448Z,1.60
2018-09-08T11:17:19.645Z,1.80
2018-09-08T11:18:19.837Z,1.50
2018-09-08T11:19:20.047Z,1.60
2018-09-08T11:20:20.251Z,1.70
2018-09-08T11:21:20.465Z,1.60
2018-09-08T11:22:20.659Z,1.60
2018-09-08T11:23:20.861Z,1.60
2018-09-08T11:24:21.059Z,1.70
2018-09-08T11:25:21.261Z,1.40
2018-09-08T11:26:21.457Z,1.70
2018-09-08T11:27:21.656Z,1.90
2018-09-08T11:28:21.855Z,1.70
2018-09-08T11:29:22.048Z,1.60
2018-09-08T11:30:22.250Z,2.00
2018-09-08T11:31:22.453Z,1.90
2018-09-08T11:32:22.640Z,2.00
2018-09-08T11:33:22.878Z,1.60
2018-09-08T11:34:23.079Z,2.00
2018-09-08T11:35:23.259Z,1.50
2018-09-08T11:36:23.458Z,1.90
2018-09-08T11:37:23.658Z,1.40
2018-09-08T11:38:23.928Z,1.60
2018-09-08T11:39:24.067Z,1.70
2018-09-08T11:40:24.263Z,1.60
2018-09-08T11:41:24.461Z,1.80
2018-09-08T11:42:24.654Z,1.60
2018-09-08T11:43:24.855Z,1.60
2018-09-08T11:44:25.052Z,1.60
2018-09-08T11:45:25.259Z,1.60
2018-09-08T11:46:25.458Z,1.80
2018-09-08T11:47:25.653Z,1.70
2018-09-08T11:48:25.844Z,1.70
2018-09-08T11:49:26.056Z,1.90
2018-09-08T11:50:26.237Z,1.60
2018-09-08T11:51:26.434Z,1.60
2018-09-08T11:52:26.637Z,1.90
2018-09-08T11:53:26.832Z,1.80
2018-09-08T11:54:27.030Z,1.70
2018-09-08T11:55:27.267Z,1.60
2018-09-08T11:56:27.426Z,1.50
2018-09-08T11:57:27.619Z,1.70
2018-09-08T11:58:27.815Z,1.70
2018-09-08T11:59:28.051Z,1.60
2018-09-08T12:00:28.199Z,1.60
2018-09-08T12:01:28.397Z,1.60
2018-09-08T12:02:28.591Z,1.60
2018-09-08T12:03:28.797Z,1.50
2018-09-08T12:04:28.998Z,1.90
2018-09-08T12:05:29.202Z,1.60
2018-09-08T12:06:29.401Z,1.70
2018-09-08T12:07:29.581Z,1.70
2018-09-08T12:08:29.778Z,1.70
2018-09-08T12:09:29.983Z,1.80
2018-09-08T12:10:30.174Z,1.80
2018-09-08T12:11:30.368Z,1.60
2018-09-08T12:12:30.562Z,1.60
2018-09-08T12:13:30.755Z,1.60
2018-09-08T12:14:30.950Z,1.60
2018-09-08T12:15:31.176Z,1.90
2018-09-08T12:16:31.342Z,1.70
2018-09-08T12:17:31.527Z,1.90
2018-09-08T12:18:31.730Z,1.90
2018-09-08T12:19:31.925Z,1.80
2018-09-08T12:20:32.129Z,1.90
2018-09-08T12:21:32.329Z,1.60
2018-09-08T12:22:32.522Z,1.60
2018-09-08T12:23:32.729Z,1.80
2018-09-08T12:24:32.921Z,1.90
2018-09-08T12:25:33.125Z,1.70
2018-09-08T12:26:33.325Z,1.70
2018-09-08T12:27:33.519Z,1.90
2018-09-08T12:28:33.717Z,1.70
2018-09-08T12:29:33.916Z,1.70
2018-09-08T12:30:34.160Z,1.60
2018-09-08T12:31:34.302Z,1.80
2018-09-08T12:32:34.570Z,1.80
2018-09-08T12:33:34.698Z,1.60
2018-09-08T12:34:34.895Z,1.80
2018-09-08T12:35:35.088Z,1.70
2018-09-08T12:36:35.279Z,1.80
2018-09-08T12:37:35.480Z,1.60
2018-09-08T12:38:35.698Z,1.60
2018-09-08T12:39:35.863Z,1.70
2018-09-08T12:40:36.064Z,1.50
2018-09-08T12:41:36.259Z,1.60
2018-09-08T12:42:36.446Z,1.80
2018-09-08T12:43:36.652Z,1.90
2018-09-08T12:44:36.839Z,1.60
2018-09-08T12:45:37.038Z,1.80
2018-09-08T12:46:37.228Z,2.10
2018-09-08T12:47:37.423Z,1.80
2018-09-08T12:48:37.620Z,1.80
2018-09-08T12:49:37.812Z,1.80
2018-09-08T12:50:38.008Z,1.80
2018-09-08T12:51:38.204Z,1.60
2018-09-08T12:52:38.408Z,1.60
2018-09-08T12:53:38.611Z,1.60
2018-09-08T12:54:38.810Z,1.70
2018-09-08T12:55:38.999Z,1.80
2018-09-08T12:56:39.193Z,2.00
2018-09-08T12:57:39.388Z,1.80
2018-09-08T12:58:39.582Z,1.90
2018-09-08T12:59:39.773Z,1.90
2018-09-08T13:00:39.965Z,1.80
2018-09-08T13:01:40.162Z,1.90
2018-09-08T13:02:40.355Z,1.90
2018-09-08T13:03:40.554Z,2.00
2018-09-08T13:04:40.746Z,1.90
2018-09-08T13:05:40.935Z,1.90
2018-09-08T13:06:41.162Z,1.80
2018-09-08T13:07:41.353Z,1.80